METAR Formatted Surface Weather Observation
Issued by NWS

Current Version | Previous Version | Text Only | Print | Product List | Glossary On
Versions: 1 2 3
647
SAUS44 KLIX 211852
MTRBVE
METAR KBVE 211851Z AUTO 17013G20KT 4SM HZ SCT016 OVC024 28/23 A3023
RMK AO2 SLP236 T02780233



USA.gov is the U.S. government's official web portal to all federal, state and local government web resources and services.